createdAt,value
2022-10-30T00:00:42.199Z,27.40
2022-10-30T00:03:13.125Z,27.40
2022-10-30T00:05:49.061Z,27.40
2022-10-30T00:08:19.817Z,27.30
2022-10-30T00:10:50.160Z,27.40
2022-10-30T00:13:19.522Z,27.50
2022-10-30T00:15:52.927Z,27.40
2022-10-30T00:18:21.857Z,27.40
2022-10-30T00:20:51.199Z,27.40
2022-10-30T00:23:20.306Z,27.30
2022-10-30T00:25:48.577Z,27.30
2022-10-30T00:28:16.537Z,27.30
2022-10-30T00:30:44.943Z,27.20
2022-10-30T00:33:12.868Z,27.10
2022-10-30T00:35:49.251Z,26.60
2022-10-30T00:38:18.673Z,26.40
2022-10-30T00:40:47.728Z,26.20
2022-10-30T00:43:33.606Z,26.50
2022-10-30T00:46:06.572Z,26.70
2022-10-30T00:48:35.740Z,26.50
2022-10-30T00:51:06.308Z,26.60
2022-10-30T00:53:36.103Z,26.50
2022-10-30T00:56:08.047Z,26.70
2022-10-30T00:58:40.789Z,26.70
2022-10-30T01:01:13.928Z,26.70
2022-10-30T01:03:42.838Z,26.70
2022-10-30T01:06:15.818Z,26.70
2022-10-30T01:08:46.428Z,26.40
2022-10-30T01:11:14.466Z,25.90
2022-10-30T01:13:46.767Z,26.00
2022-10-30T01:16:47.221Z,25.70
2022-10-30T01:19:26.951Z,26.10
2022-10-30T01:22:13.880Z,26.20
2022-10-30T01:24:53.792Z,26.30
2022-10-30T01:27:40.210Z,26.60
2022-10-30T01:30:19.267Z,26.70
2022-10-30T01:33:02.216Z,26.90
2022-10-30T01:35:38.359Z,27.00
2022-10-30T01:38:13.283Z,26.70
2022-10-30T01:40:44.554Z,26.70
2022-10-30T01:43:12.519Z,26.60
2022-10-30T01:45:54.551Z,26.60
2022-10-30T01:48:44.930Z,26.60
2022-10-30T01:51:21.907Z,26.70
2022-10-30T01:53:58.919Z,26.70
2022-10-30T01:56:38.608Z,26.60
2022-10-30T01:59:12.406Z,26.40
2022-10-30T02:01:41.042Z,26.20
2022-10-30T02:04:11.268Z,26.30
2022-10-30T02:06:40.957Z,26.40
2022-10-30T02:09:10.008Z,26.00
2022-10-30T02:11:47.960Z,25.90
2022-10-30T02:14:22.556Z,26.20
2022-10-30T02:16:52.768Z,26.10
2022-10-30T02:19:21.729Z,26.00
2022-10-30T02:21:51.809Z,25.60
2022-10-30T02:24:19.865Z,25.20
2022-10-30T02:26:47.879Z,25.20
2022-10-30T02:29:15.849Z,25.50
2022-10-30T02:31:43.825Z,25.50
2022-10-30T02:34:12.235Z,25.70
2022-10-30T02:36:40.257Z,25.50
2022-10-30T02:39:09.598Z,25.60
2022-10-30T02:41:37.843Z,25.80
2022-10-30T02:44:06.574Z,25.90
2022-10-30T02:46:36.347Z,26.00
2022-10-30T02:49:04.727Z,25.80
2022-10-30T02:51:33.506Z,25.80
2022-10-30T02:54:02.252Z,25.60
2022-10-30T02:56:32.692Z,25.80
2022-10-30T02:59:01.473Z,25.80
2022-10-30T03:01:29.732Z,25.80
2022-10-30T03:03:59.896Z,25.70
2022-10-30T03:06:28.223Z,25.50
2022-10-30T03:08:59.208Z,25.50
2022-10-30T03:11:27.209Z,25.30
2022-10-30T03:13:57.592Z,25.20
2022-10-30T03:16:29.285Z,24.60
2022-10-30T03:18:58.271Z,24.70
2022-10-30T03:21:28.445Z,24.50
2022-10-30T03:23:57.196Z,24.90
2022-10-30T03:26:25.123Z,24.60
2022-10-30T03:28:59.005Z,24.50
2022-10-30T03:31:27.018Z,24.30
2022-10-30T03:34:10.072Z,24.00
2022-10-30T03:36:38.043Z,24.20
2022-10-30T03:39:06.545Z,24.50
2022-10-30T03:41:35.261Z,24.70
2022-10-30T03:44:05.021Z,25.10
2022-10-30T03:46:32.992Z,25.40
2022-10-30T03:49:15.333Z,25.20
2022-10-30T03:51:43.761Z,25.30
2022-10-30T03:54:11.816Z,25.40
2022-10-30T03:56:40.156Z,25.50
2022-10-30T03:59:12.109Z,24.70
2022-10-30T04:01:45.042Z,24.70
2022-10-30T04:04:13.079Z,24.90
2022-10-30T04:06:41.650Z,25.10
2022-10-30T04:09:09.924Z,25.00
2022-10-30T04:11:42.485Z,24.90
2022-10-30T04:14:11.896Z,24.60
2022-10-30T04:16:39.857Z,24.60
2022-10-30T04:19:09.686Z,24.40
2022-10-30T04:21:38.253Z,24.50
2022-10-30T04:24:06.698Z,24.60
2022-10-30T04:26:36.337Z,24.80
2022-10-30T04:29:04.439Z,24.60
2022-10-30T04:31:33.943Z,25.20
2022-10-30T04:34:03.007Z,25.20
2022-10-30T04:36:33.869Z,24.40
2022-10-30T04:39:03.060Z,24.70
2022-10-30T04:41:31.855Z,24.70
2022-10-30T04:44:05.316Z,24.50
2022-10-30T04:46:35.270Z,24.60
2022-10-30T04:49:10.178Z,24.40
2022-10-30T04:51:38.175Z,24.70
2022-10-30T04:54:08.029Z,24.30
2022-10-30T04:56:38.135Z,24.00
2022-10-30T04:59:07.098Z,24.20
2022-10-30T05:01:36.473Z,24.10
2022-10-30T05:04:05.777Z,23.80
2022-10-30T05:06:34.721Z,23.70
2022-10-30T05:09:03.237Z,23.60
2022-10-30T05:11:41.426Z,23.60
2022-10-30T05:14:09.621Z,23.30
2022-10-30T05:16:40.338Z,23.20
2022-10-30T05:19:08.983Z,22.80
2022-10-30T05:21:37.068Z,22.80
2022-10-30T05:24:06.365Z,22.90
2022-10-30T05:26:42.192Z,23.00
2022-10-30T05:29:10.376Z,23.40
2022-10-30T05:31:40.802Z,23.60
2022-10-30T05:34:17.751Z,23.80
2022-10-30T05:36:48.623Z,23.20
2022-10-30T05:39:17.158Z,23.40
2022-10-30T05:41:48.730Z,23.30
2022-10-30T05:44:29.205Z,23.30
2022-10-30T05:47:05.250Z,23.80
2022-10-30T05:49:35.485Z,23.40
2022-10-30T05:52:06.651Z,23.20
2022-10-30T05:54:34.686Z,22.90
2022-10-30T05:57:10.729Z,22.90
2022-10-30T05:59:40.604Z,23.00
2022-10-30T06:02:10.577Z,23.20
2022-10-30T06:04:38.584Z,23.50
2022-10-30T06:07:11.720Z,23.20
2022-10-30T06:09:39.798Z,23.00
2022-10-30T06:12:27.214Z,22.60
2022-10-30T06:15:04.651Z,22.70
2022-10-30T06:17:34.116Z,22.90
2022-10-30T06:20:14.973Z,23.00
2022-10-30T06:22:55.762Z,23.10
2022-10-30T06:25:27.466Z,22.80
2022-10-30T06:28:18.122Z,23.10
2022-10-30T06:30:48.148Z,23.20
2022-10-30T06:33:17.464Z,23.20
2022-10-30T06:35:50.636Z,23.00
2022-10-30T06:38:20.008Z,23.50
2022-10-30T06:40:50.481Z,23.40
2022-10-30T06:43:28.355Z,23.30
2022-10-30T06:45:59.667Z,23.70
2022-10-30T06:48:33.526Z,23.90
2022-10-30T06:51:03.110Z,23.60
2022-10-30T06:53:34.298Z,24.00
2022-10-30T06:56:22.510Z,24.30
2022-10-30T06:59:06.348Z,24.60
2022-10-30T07:01:46.385Z,24.90
2022-10-30T07:04:20.366Z,24.40
2022-10-30T07:06:48.390Z,24.10
2022-10-30T07:09:18.622Z,24.20
2022-10-30T07:11:47.750Z,24.60
2022-10-30T07:14:38.664Z,24.40
2022-10-30T07:17:14.643Z,23.90
2022-10-30T07:19:47.576Z,23.80
2022-10-30T07:22:16.228Z,23.90
2022-10-30T07:24:51.301Z,23.90
2022-10-30T07:27:31.231Z,24.30
2022-10-30T07:30:12.809Z,24.20
2022-10-30T07:33:10.135Z,24.20
2022-10-30T07:36:01.897Z,24.10
2022-10-30T07:38:48.962Z,24.10
2022-10-30T07:41:30.168Z,23.90
2022-10-30T07:44:16.749Z,23.90
2022-10-30T07:46:56.616Z,23.90
2022-10-30T07:49:46.232Z,23.90
2022-10-30T07:52:17.265Z,24.00
2022-10-30T07:54:46.742Z,24.60
2022-10-30T07:57:35.614Z,24.50
2022-10-30T08:00:22.533Z,24.90
2022-10-30T08:03:00.534Z,24.50
2022-10-30T08:05:37.043Z,24.40
2022-10-30T08:08:10.362Z,24.30
2022-10-30T08:10:38.803Z,24.00
2022-10-30T08:13:06.923Z,24.20
2022-10-30T08:15:34.910Z,24.00
2022-10-30T08:18:03.697Z,24.10
2022-10-30T08:20:31.747Z,24.70
2022-10-30T08:23:00.972Z,24.60
2022-10-30T08:25:32.056Z,25.00
2022-10-30T08:28:01.917Z,24.70
2022-10-30T08:30:35.730Z,24.80
2022-10-30T08:33:08.697Z,25.00
2022-10-30T08:35:57.475Z,25.00
2022-10-30T08:38:28.014Z,24.90
2022-10-30T08:41:15.038Z,24.80
2022-10-30T08:43:47.014Z,24.90
2022-10-30T08:46:15.105Z,25.10
2022-10-30T08:48:43.145Z,25.30
2022-10-30T08:51:11.303Z,25.20
2022-10-30T08:53:44.924Z,25.10
2022-10-30T08:56:17.148Z,25.40
2022-10-30T08:58:52.940Z,25.50
2022-10-30T09:01:21.122Z,25.60
2022-10-30T09:04:07.734Z,25.50
2022-10-30T09:06:58.572Z,25.90
2022-10-30T09:09:50.531Z,26.00
2022-10-30T09:12:19.871Z,25.80
2022-10-30T09:14:48.546Z,26.10
2022-10-30T09:17:16.506Z,26.10
2022-10-30T09:22:26.417Z,26.40
2022-10-30T09:24:54.620Z,26.30
2022-10-30T09:27:59.384Z,26.80
2022-10-30T09:30:31.484Z,26.50
2022-10-30T09:33:04.252Z,26.60
2022-10-30T09:35:52.709Z,26.70
2022-10-30T09:38:20.738Z,27.00
2022-10-30T09:41:10.423Z,26.90
2022-10-30T09:43:50.666Z,27.40
2022-10-30T09:46:40.245Z,27.60
2022-10-30T09:49:25.135Z,27.60
2022-10-30T09:52:14.396Z,27.60
2022-10-30T09:54:56.072Z,27.50
2022-10-30T09:57:34.440Z,27.40
2022-10-30T10:00:11.394Z,27.20
2022-10-30T10:02:57.695Z,27.40
2022-10-30T10:05:35.656Z,27.70
2022-10-30T10:08:43.324Z,27.40
2022-10-30T10:11:35.061Z,27.40
2022-10-30T10:14:08.598Z,27.50
2022-10-30T10:16:42.031Z,28.00
2022-10-30T10:19:17.250Z,28.10
2022-10-30T10:21:48.171Z,28.20
2022-10-30T10:24:20.161Z,28.20
2022-10-30T10:26:50.634Z,28.70
2022-10-30T10:29:34.043Z,28.70
2022-10-30T10:32:15.154Z,28.90
2022-10-30T10:34:56.357Z,28.70
2022-10-30T10:37:32.601Z,28.60
2022-10-30T10:40:17.641Z,28.30
2022-10-30T10:42:57.846Z,28.20
2022-10-30T10:45:32.932Z,27.80
2022-10-30T10:48:26.626Z,27.70
2022-10-30T10:51:02.494Z,27.70
2022-10-30T10:53:37.315Z,28.00
2022-10-30T10:56:06.103Z,28.30
2022-10-30T10:58:40.581Z,28.80
2022-10-30T11:01:15.111Z,29.00
2022-10-30T11:03:53.877Z,29.20
2022-10-30T11:06:23.996Z,29.30
2022-10-30T11:08:54.244Z,29.50
2022-10-30T11:11:22.347Z,29.80
2022-10-30T11:13:51.047Z,29.40
2022-10-30T11:16:26.898Z,29.40
2022-10-30T11:18:59.025Z,29.40
2022-10-30T11:21:30.206Z,29.60
2022-10-30T11:23:58.214Z,29.70
2022-10-30T11:26:32.518Z,29.80
2022-10-30T11:29:05.574Z,29.70
2022-10-30T11:31:37.749Z,29.90
2022-10-30T11:34:37.606Z,30.20
2022-10-30T11:37:06.624Z,30.70
2022-10-30T11:39:36.332Z,30.90
2022-10-30T11:42:14.439Z,30.90
2022-10-30T11:44:44.538Z,30.90
2022-10-30T11:47:15.563Z,30.80
2022-10-30T11:49:49.838Z,30.90
2022-10-30T11:52:20.726Z,30.70
2022-10-30T11:54:54.049Z,30.80
2022-10-30T11:57:33.945Z,30.80
2022-10-30T12:00:05.537Z,30.70
2022-10-30T12:02:43.614Z,30.80
2022-10-30T12:05:32.463Z,30.80
2022-10-30T12:08:19.207Z,30.90
2022-10-30T12:10:57.066Z,30.70
2022-10-30T12:13:25.999Z,31.10
2022-10-30T12:16:07.525Z,30.80
2022-10-30T12:18:36.002Z,30.90
2022-10-30T12:21:05.637Z,31.00
2022-10-30T12:23:34.380Z,30.90
2022-10-30T12:26:09.280Z,30.80
2022-10-30T12:28:37.838Z,30.60
2022-10-30T12:31:11.731Z,30.60
2022-10-30T12:33:44.375Z,30.80
2022-10-30T12:36:17.855Z,30.90
2022-10-30T12:38:50.281Z,30.80
2022-10-30T12:41:24.607Z,30.70
2022-10-30T12:43:59.275Z,30.90
2022-10-30T12:46:34.715Z,30.90
2022-10-30T12:49:12.597Z,31.20
2022-10-30T12:51:50.788Z,31.70
2022-10-30T12:54:26.865Z,31.80
2022-10-30T12:57:14.551Z,32.00
2022-10-30T12:59:52.753Z,32.00
2022-10-30T13:02:30.205Z,31.80
2022-10-30T13:05:04.705Z,31.60
2022-10-30T13:07:41.782Z,31.70
2022-10-30T13:10:26.712Z,31.80
2022-10-30T13:13:01.986Z,31.70
2022-10-30T13:15:34.142Z,31.80
2022-10-30T13:18:14.607Z,31.50
2022-10-30T13:20:45.441Z,31.90
2022-10-30T13:23:21.634Z,32.10
2022-10-30T13:26:03.107Z,32.00
2022-10-30T13:28:40.146Z,32.00
2022-10-30T13:31:17.873Z,32.10
2022-10-30T13:33:53.864Z,32.20
2022-10-30T13:36:28.164Z,32.00
2022-10-30T13:39:01.706Z,31.90
2022-10-30T13:41:40.926Z,32.00
2022-10-30T13:44:22.759Z,32.10
2022-10-30T13:46:59.840Z,31.80
2022-10-30T13:49:49.298Z,31.90
2022-10-30T13:52:18.791Z,31.70
2022-10-30T13:54:57.990Z,31.80
2022-10-30T13:57:33.843Z,31.80
2022-10-30T14:00:07.692Z,32.00
2022-10-30T14:02:52.398Z,31.70
2022-10-30T14:05:31.902Z,32.00
2022-10-30T14:08:07.778Z,32.40
2022-10-30T14:10:46.460Z,32.80
2022-10-30T14:13:26.786Z,33.10
2022-10-30T14:15:57.617Z,33.30
2022-10-30T14:18:43.639Z,33.20
2022-10-30T14:21:38.622Z,33.20
2022-10-30T14:24:13.711Z,32.90
2022-10-30T14:26:50.091Z,32.60
2022-10-30T14:29:39.562Z,32.90
2022-10-30T14:32:40.952Z,32.90
2022-10-30T14:35:29.064Z,32.80
2022-10-30T14:37:58.164Z,32.70
2022-10-30T14:40:39.026Z,32.60
2022-10-30T14:43:16.001Z,32.60
2022-10-30T14:45:49.452Z,32.50
2022-10-30T14:48:23.434Z,32.50
2022-10-30T14:51:05.565Z,32.10
2022-10-30T14:53:51.757Z,32.00
2022-10-30T14:56:31.412Z,32.10
2022-10-30T14:59:23.049Z,32.10
2022-10-30T15:02:00.771Z,32.00
2022-10-30T15:04:41.534Z,31.60
2022-10-30T15:07:20.624Z,31.60
2022-10-30T15:10:01.253Z,31.30
2022-10-30T15:12:52.280Z,31.40
2022-10-30T15:15:22.263Z,31.40
2022-10-30T15:17:53.620Z,31.40
2022-10-30T15:20:24.849Z,31.50
2022-10-30T15:22:55.390Z,31.20
2022-10-30T15:25:25.410Z,31.00
2022-10-30T15:27:55.624Z,31.10
2022-10-30T15:30:26.890Z,31.30
2022-10-30T15:32:55.423Z,31.30
2022-10-30T15:35:25.733Z,31.30
2022-10-30T15:38:01.115Z,31.10
2022-10-30T15:40:30.374Z,30.90
2022-10-30T15:43:00.718Z,30.50
2022-10-30T15:45:35.359Z,30.50
2022-10-30T15:48:09.342Z,30.20
2022-10-30T15:50:41.476Z,29.80
2022-10-30T15:53:18.375Z,29.40
2022-10-30T15:55:46.665Z,29.10
2022-10-30T15:58:18.341Z,28.90
2022-10-30T16:00:57.700Z,28.70
2022-10-30T16:03:26.368Z,28.40
2022-10-30T16:06:05.690Z,28.40
2022-10-30T16:08:43.158Z,28.20
2022-10-30T16:11:11.347Z,27.90
2022-10-30T16:13:39.629Z,27.80
2022-10-30T16:18:44.803Z,27.80
2022-10-30T16:21:18.543Z,27.50
2022-10-30T16:23:54.784Z,27.70
2022-10-30T16:26:27.440Z,27.60
2022-10-30T16:28:55.402Z,27.60
2022-10-30T16:31:25.249Z,27.70
2022-10-30T16:33:54.134Z,27.30
2022-10-30T16:36:22.142Z,27.50
2022-10-30T16:38:52.216Z,27.50
2022-10-30T16:41:25.698Z,27.60
2022-10-30T16:44:27.409Z,27.80
2022-10-30T16:46:59.261Z,27.70
2022-10-30T16:49:30.573Z,28.00
2022-10-30T16:52:01.106Z,28.10
2022-10-30T16:54:32.172Z,27.90
2022-10-30T16:57:02.233Z,27.60
2022-10-30T16:59:34.041Z,27.70
2022-10-30T17:02:07.129Z,27.40
2022-10-30T17:04:36.190Z,27.60
2022-10-30T17:07:18.583Z,27.40
2022-10-30T17:09:48.200Z,27.60
2022-10-30T17:12:21.582Z,27.50
2022-10-30T17:14:55.856Z,27.60
2022-10-30T17:17:31.549Z,27.50
2022-10-30T17:20:06.110Z,27.60
2022-10-30T17:22:34.614Z,27.30
2022-10-30T17:25:02.690Z,27.60
2022-10-30T17:27:45.152Z,27.50
2022-10-30T17:30:39.015Z,27.30
2022-10-30T17:33:27.045Z,26.70
2022-10-30T17:38:29.048Z,26.70
2022-10-30T17:40:57.186Z,26.30
2022-10-30T17:43:28.685Z,26.50
2022-10-30T17:45:56.948Z,26.40
2022-10-30T17:48:28.209Z,26.40
2022-10-30T17:50:56.602Z,26.70
2022-10-30T17:53:26.075Z,26.80
2022-10-30T17:56:01.196Z,26.70
2022-10-30T17:58:30.752Z,26.80
2022-10-30T18:00:59.313Z,26.90
2022-10-30T18:03:29.080Z,27.10
2022-10-30T18:05:58.637Z,27.00
2022-10-30T18:08:26.628Z,26.70
2022-10-30T18:10:54.679Z,26.30
2022-10-30T18:13:22.711Z,26.40
2022-10-30T18:15:55.374Z,26.20
2022-10-30T18:18:23.341Z,26.00
2022-10-30T18:20:52.649Z,26.00
2022-10-30T18:23:51.429Z,25.90
2022-10-30T18:26:15.875Z,26.30
2022-10-30T18:28:43.990Z,26.60
2022-10-30T18:31:13.853Z,26.50
2022-10-30T18:33:41.889Z,26.80
2022-10-30T18:36:15.076Z,26.80
2022-10-30T18:38:43.177Z,26.90
2022-10-30T18:41:16.189Z,27.10
2022-10-30T18:43:46.917Z,27.20
2022-10-30T18:46:16.921Z,27.40
2022-10-30T18:48:45.595Z,27.10
2022-10-30T18:51:19.205Z,26.80
2022-10-30T18:53:52.395Z,26.80
2022-10-30T18:56:22.102Z,26.40
2022-10-30T18:58:53.567Z,26.20
2022-10-30T19:01:26.595Z,26.30
2022-10-30T19:03:54.973Z,26.30
2022-10-30T19:06:25.701Z,26.00
2022-10-30T19:08:55.813Z,25.70
2022-10-30T19:11:25.199Z,25.30
2022-10-30T19:13:54.900Z,25.10
2022-10-30T19:16:24.471Z,24.80
2022-10-30T19:18:52.768Z,24.90
2022-10-30T19:21:22.782Z,24.80
2022-10-30T19:23:54.691Z,24.80
2022-10-30T19:26:22.705Z,25.10
2022-10-30T19:28:50.675Z,25.30
2022-10-30T19:31:22.963Z,25.50
2022-10-30T19:33:54.569Z,25.60
2022-10-30T19:36:29.998Z,25.60
2022-10-30T19:39:04.218Z,25.70
2022-10-30T19:41:35.358Z,25.60
2022-10-30T19:44:03.332Z,25.40
2022-10-30T19:46:31.312Z,25.50
2022-10-30T19:49:00.091Z,25.30
2022-10-30T19:51:31.261Z,25.20
2022-10-30T19:54:00.592Z,25.10
2022-10-30T19:56:29.038Z,25.00
2022-10-30T19:58:57.334Z,24.80
2022-10-30T20:01:25.496Z,24.70
2022-10-30T20:03:53.582Z,24.70
2022-10-30T20:06:21.990Z,24.70
2022-10-30T20:08:50.235Z,24.50
2022-10-30T20:11:19.694Z,24.70
2022-10-30T20:13:52.189Z,25.40
2022-10-30T20:16:22.855Z,25.80
2022-10-30T20:18:51.255Z,26.10
2022-10-30T20:21:21.067Z,26.30
2022-10-30T20:23:49.146Z,26.30
2022-10-30T20:26:25.954Z,26.60
2022-10-30T20:28:54.534Z,26.70
2022-10-30T20:31:22.762Z,26.40
2022-10-30T20:33:50.751Z,26.40
2022-10-30T20:36:18.746Z,26.40
2022-10-30T20:38:46.779Z,26.30
2022-10-30T20:41:22.914Z,26.20
2022-10-30T20:43:52.534Z,26.30
2022-10-30T20:46:21.109Z,26.10
2022-10-30T20:48:52.772Z,26.20
2022-10-30T20:51:21.355Z,26.20
2022-10-30T20:53:50.793Z,26.10
2022-10-30T20:56:18.837Z,26.00
2022-10-30T20:58:46.788Z,25.50
2022-10-30T21:01:16.232Z,25.50
2022-10-30T21:03:45.576Z,25.40
2022-10-30T21:06:15.479Z,25.60
2022-10-30T21:08:43.511Z,25.70
2022-10-30T21:11:11.507Z,25.60
2022-10-30T21:13:40.789Z,25.80
2022-10-30T21:16:10.282Z,25.80
2022-10-30T21:18:39.594Z,25.60
2022-10-30T21:21:11.464Z,25.90
2022-10-30T21:23:39.580Z,26.10
2022-10-30T21:26:12.062Z,26.30
2022-10-30T21:28:40.308Z,26.30
2022-10-30T21:31:11.464Z,26.50
2022-10-30T21:33:43.056Z,26.70
2022-10-30T21:36:14.533Z,26.50
2022-10-30T21:38:44.279Z,26.30
2022-10-30T21:41:14.086Z,26.40
2022-10-30T21:43:42.404Z,26.30
2022-10-30T21:46:12.810Z,26.40
2022-10-30T21:48:41.140Z,26.30
2022-10-30T21:51:13.393Z,26.30
2022-10-30T21:53:42.187Z,26.00
2022-10-30T21:56:12.234Z,26.10
2022-10-30T21:58:41.135Z,26.10
2022-10-30T22:01:17.075Z,25.90
2022-10-30T22:03:45.161Z,25.90
2022-10-30T22:06:16.833Z,26.00
2022-10-30T22:08:46.993Z,26.30
2022-10-30T22:11:15.780Z,26.40
2022-10-30T22:13:44.182Z,26.50
2022-10-30T22:16:14.073Z,26.60
2022-10-30T22:18:42.259Z,26.70
2022-10-30T22:21:12.568Z,26.60
2022-10-30T22:23:42.727Z,26.30
2022-10-30T22:26:13.720Z,26.30
2022-10-30T22:28:42.210Z,26.40
2022-10-30T22:31:12.787Z,26.50
2022-10-30T22:33:41.248Z,26.40
2022-10-30T22:36:14.307Z,26.40
2022-10-30T22:38:44.023Z,26.40
2022-10-30T22:41:15.282Z,26.50
2022-10-30T22:43:44.666Z,26.50
2022-10-30T22:46:13.470Z,26.40
2022-10-30T22:48:41.520Z,26.30
2022-10-30T22:51:15.163Z,26.30
2022-10-30T22:53:46.700Z,26.20
2022-10-30T22:56:17.578Z,26.10
2022-10-30T22:58:46.470Z,26.00
2022-10-30T23:01:16.634Z,25.70
2022-10-30T23:03:45.284Z,25.30
2022-10-30T23:06:14.596Z,25.40
2022-10-30T23:08:43.324Z,25.30
2022-10-30T23:11:12.871Z,25.50
2022-10-30T23:13:41.387Z,25.40
2022-10-30T23:16:13.540Z,25.50
2022-10-30T23:18:42.442Z,25.70
2022-10-30T23:21:13.685Z,25.70
2022-10-30T23:23:42.563Z,25.70
2022-10-30T23:26:14.026Z,25.50
2022-10-30T23:28:44.956Z,25.50
2022-10-30T23:31:19.296Z,25.50
2022-10-30T23:33:48.718Z,25.30
2022-10-30T23:36:17.244Z,25.00
2022-10-30T23:38:45.587Z,24.90
2022-10-30T23:41:14.903Z,24.60
2022-10-30T23:43:42.841Z,24.40
2022-10-30T23:46:10.888Z,24.60
2022-10-30T23:48:38.859Z,24.30
2022-10-30T23:51:07.753Z,24.50
2022-10-30T23:53:35.851Z,24.70
2022-10-30T23:56:04.518Z,25.00
2022-10-30T23:58:33.917Z,25.10
